sensor_id;sensor_type;location;lat;lon;timestamp;P1;durP1;ratioP1;P2;durP2;ratioP2
37907;SDS011;23740;51.550;6.846;2022-12-20T00:00:41;3.35;;;2.30;;
37907;SDS011;23740;51.550;6.846;2022-12-20T00:03:07;2.17;;;1.97;;
37907;SDS011;23740;51.550;6.846;2022-12-20T00:05:35;3.53;;;2.42;;
37907;SDS011;23740;51.550;6.846;2022-12-20T00:08:04;2.65;;;1.95;;
37907;SDS011;23740;51.550;6.846;2022-12-20T00:10:33;2.28;;;2.08;;
37907;SDS011;23740;51.550;6.846;2022-12-20T00:13:00;2.22;;;2.03;;
37907;SDS011;23740;51.550;6.846;2022-12-20T00:15:25;2.97;;;2.10;;
37907;SDS011;23740;51.550;6.846;2022-12-20T00:17:51;3.45;;;2.55;;
37907;SDS011;23740;51.550;6.846;2022-12-20T00:20:16;2.90;;;1.98;;
37907;SDS011;23740;51.550;6.846;2022-12-20T00:22:41;4.32;;;2.40;;
37907;SDS011;23740;51.550;6.846;2022-12-20T00:25:07;2.25;;;2.00;;
37907;SDS011;23740;51.550;6.846;2022-12-20T00:27:33;2.90;;;2.20;;
37907;SDS011;23740;51.550;6.846;2022-12-20T00:29:58;3.75;;;2.22;;
37907;SDS011;23740;51.550;6.846;2022-12-20T00:32:23;2.20;;;1.92;;
37907;SDS011;23740;51.550;6.846;2022-12-20T00:34:49;3.50;;;2.17;;
37907;SDS011;23740;51.550;6.846;2022-12-20T00:37:14;3.80;;;2.03;;
37907;SDS011;23740;51.550;6.846;2022-12-20T00:39:39;2.45;;;2.10;;
37907;SDS011;23740;51.550;6.846;2022-12-20T00:42:05;2.20;;;1.73;;
37907;SDS011;23740;51.550;6.846;2022-12-20T00:44:31;2.47;;;2.08;;
37907;SDS011;23740;51.550;6.846;2022-12-20T00:46:56;2.97;;;2.25;;
37907;SDS011;23740;51.550;6.846;2022-12-20T00:49:21;2.97;;;2.10;;
37907;SDS011;23740;51.550;6.846;2022-12-20T00:51:47;2.95;;;1.95;;
37907;SDS011;23740;51.550;6.846;2022-12-20T00:54:12;3.45;;;2.20;;
37907;SDS011;23740;51.550;6.846;2022-12-20T00:56:38;2.10;;;1.80;;
37907;SDS011;23740;51.550;6.846;2022-12-20T00:59:03;2.65;;;2.17;;
37907;SDS011;23740;51.550;6.846;2022-12-20T01:01:30;2.10;;;1.90;;
37907;SDS011;23740;51.550;6.846;2022-12-20T01:03:56;2.58;;;2.17;;
37907;SDS011;23740;51.550;6.846;2022-12-20T01:06:22;2.38;;;2.00;;
37907;SDS011;23740;51.550;6.846;2022-12-20T01:08:48;4.18;;;2.13;;
37907;SDS011;23740;51.550;6.846;2022-12-20T01:11:15;6.30;;;2.20;;
37907;SDS011;23740;51.550;6.846;2022-12-20T01:13:46;3.00;;;2.28;;
37907;SDS011;23740;51.550;6.846;2022-12-20T01:16:20;2.17;;;1.90;;
37907;SDS011;23740;51.550;6.846;2022-12-20T01:18:52;3.92;;;2.80;;
37907;SDS011;23740;51.550;6.846;2022-12-20T01:21:18;3.05;;;2.00;;
37907;SDS011;23740;51.550;6.846;2022-12-20T01:23:45;2.42;;;1.95;;
37907;SDS011;23740;51.550;6.846;2022-12-20T01:26:12;3.35;;;2.00;;
37907;SDS011;23740;51.550;6.846;2022-12-20T01:28:40;2.37;;;2.17;;
37907;SDS011;23740;51.550;6.846;2022-12-20T01:31:12;2.75;;;2.10;;
37907;SDS011;23740;51.550;6.846;2022-12-20T01:33:40;2.33;;;1.83;;
37907;SDS011;23740;51.550;6.846;2022-12-20T01:36:08;2.83;;;2.00;;
37907;SDS011;23740;51.550;6.846;2022-12-20T01:38:35;5.70;;;2.00;;
37907;SDS011;23740;51.550;6.846;2022-12-20T01:41:01;2.45;;;1.92;;
37907;SDS011;23740;51.550;6.846;2022-12-20T01:46:12;2.83;;;2.10;;
37907;SDS011;23740;51.550;6.846;2022-12-20T01:48:37;2.30;;;1.95;;
37907;SDS011;23740;51.550;6.846;2022-12-20T01:51:03;2.40;;;2.10;;
37907;SDS011;23740;51.550;6.846;2022-12-20T01:53:29;2.80;;;2.00;;
37907;SDS011;23740;51.550;6.846;2022-12-20T01:55:55;2.33;;;2.08;;
37907;SDS011;23740;51.550;6.846;2022-12-20T01:58:21;2.72;;;2.28;;
37907;SDS011;23740;51.550;6.846;2022-12-20T02:00:47;4.30;;;2.00;;
37907;SDS011;23740;51.550;6.846;2022-12-20T02:03:13;3.55;;;2.05;;
37907;SDS011;23740;51.550;6.846;2022-12-20T02:05:40;2.50;;;2.03;;
37907;SDS011;23740;51.550;6.846;2022-12-20T02:08:09;3.50;;;2.08;;
37907;SDS011;23740;51.550;6.846;2022-12-20T02:13:43;2.97;;;2.00;;
37907;SDS011;23740;51.550;6.846;2022-12-20T02:16:11;2.25;;;2.05;;
37907;SDS011;23740;51.550;6.846;2022-12-20T02:18:48;2.45;;;1.70;;
37907;SDS011;23740;51.550;6.846;2022-12-20T02:26:36;3.65;;;2.13;;
37907;SDS011;23740;51.550;6.846;2022-12-20T02:32:08;2.73;;;1.90;;
37907;SDS011;23740;51.550;6.846;2022-12-20T02:34:42;2.75;;;1.88;;
37907;SDS011;23740;51.550;6.846;2022-12-20T02:37:08;2.03;;;1.83;;
37907;SDS011;23740;51.550;6.846;2022-12-20T02:39:34;2.78;;;1.85;;
37907;SDS011;23740;51.550;6.846;2022-12-20T02:42:00;3.17;;;2.15;;
37907;SDS011;23740;51.550;6.846;2022-12-20T02:44:32;2.08;;;1.80;;
37907;SDS011;23740;51.550;6.846;2022-12-20T02:47:20;2.45;;;1.70;;
37907;SDS011;23740;51.550;6.846;2022-12-20T02:49:49;4.32;;;2.17;;
37907;SDS011;23740;51.550;6.846;2022-12-20T02:52:15;2.28;;;1.92;;
37907;SDS011;23740;51.550;6.846;2022-12-20T02:54:42;1.85;;;1.75;;
37907;SDS011;23740;51.550;6.846;2022-12-20T03:02:18;1.70;;;1.60;;
37907;SDS011;23740;51.550;6.846;2022-12-20T03:04:44;2.15;;;1.58;;
37907;SDS011;23740;51.550;6.846;2022-12-20T03:07:11;2.50;;;1.95;;
37907;SDS011;23740;51.550;6.846;2022-12-20T03:09:38;2.30;;;1.90;;
37907;SDS011;23740;51.550;6.846;2022-12-20T03:12:06;2.67;;;1.63;;
37907;SDS011;23740;51.550;6.846;2022-12-20T03:14:32;2.67;;;1.90;;
37907;SDS011;23740;51.550;6.846;2022-12-20T03:16:57;2.60;;;2.15;;
37907;SDS011;23740;51.550;6.846;2022-12-20T03:19:23;2.40;;;1.80;;
37907;SDS011;23740;51.550;6.846;2022-12-20T03:21:49;2.10;;;1.63;;
37907;SDS011;23740;51.550;6.846;2022-12-20T03:24:15;2.53;;;1.90;;
37907;SDS011;23740;51.550;6.846;2022-12-20T03:26:40;2.67;;;2.10;;
37907;SDS011;23740;51.550;6.846;2022-12-20T03:29:06;2.97;;;2.15;;
37907;SDS011;23740;51.550;6.846;2022-12-20T03:31:31;2.20;;;1.88;;
37907;SDS011;23740;51.550;6.846;2022-12-20T03:33:57;2.88;;;2.10;;
37907;SDS011;23740;51.550;6.846;2022-12-20T03:36:22;3.42;;;2.10;;
37907;SDS011;23740;51.550;6.846;2022-12-20T03:38:51;2.75;;;1.70;;
37907;SDS011;23740;51.550;6.846;2022-12-20T03:43:43;2.00;;;1.77;;
37907;SDS011;23740;51.550;6.846;2022-12-20T03:46:08;1.95;;;1.63;;
37907;SDS011;23740;51.550;6.846;2022-12-20T03:48:33;2.00;;;1.80;;
37907;SDS011;23740;51.550;6.846;2022-12-20T03:50:59;2.13;;;1.88;;
37907;SDS011;23740;51.550;6.846;2022-12-20T03:53:24;3.00;;;1.75;;
37907;SDS011;23740;51.550;6.846;2022-12-20T03:55:49;2.38;;;1.83;;
37907;SDS011;23740;51.550;6.846;2022-12-20T03:58:15;3.22;;;2.15;;
37907;SDS011;23740;51.550;6.846;2022-12-20T04:00:40;2.22;;;1.75;;
37907;SDS011;23740;51.550;6.846;2022-12-20T04:03:06;2.45;;;1.73;;
37907;SDS011;23740;51.550;6.846;2022-12-20T04:05:31;1.95;;;1.70;;
37907;SDS011;23740;51.550;6.846;2022-12-20T04:07:56;1.70;;;1.60;;
37907;SDS011;23740;51.550;6.846;2022-12-20T04:10:22;2.13;;;1.92;;
37907;SDS011;23740;51.550;6.846;2022-12-20T04:12:47;2.47;;;1.77;;
37907;SDS011;23740;51.550;6.846;2022-12-20T04:15:12;2.88;;;2.03;;
37907;SDS011;23740;51.550;6.846;2022-12-20T04:17:38;2.42;;;1.80;;
37907;SDS011;23740;51.550;6.846;2022-12-20T04:20:04;1.90;;;1.65;;
37907;SDS011;23740;51.550;6.846;2022-12-20T04:22:49;1.85;;;1.63;;
37907;SDS011;23740;51.550;6.846;2022-12-20T04:25:16;2.33;;;1.70;;
37907;SDS011;23740;51.550;6.846;2022-12-20T04:27:43;3.20;;;1.83;;
37907;SDS011;23740;51.550;6.846;2022-12-20T04:30:09;2.70;;;2.00;;
37907;SDS011;23740;51.550;6.846;2022-12-20T04:32:35;1.88;;;1.73;;
37907;SDS011;23740;51.550;6.846;2022-12-20T04:35:00;2.35;;;1.70;;
37907;SDS011;23740;51.550;6.846;2022-12-20T04:37:26;2.15;;;1.65;;
37907;SDS011;23740;51.550;6.846;2022-12-20T04:39:51;2.33;;;1.55;;
37907;SDS011;23740;51.550;6.846;2022-12-20T04:42:17;1.60;;;1.50;;
37907;SDS011;23740;51.550;6.846;2022-12-20T04:44:42;2.78;;;2.08;;
37907;SDS011;23740;51.550;6.846;2022-12-20T04:47:07;2.05;;;1.70;;
37907;SDS011;23740;51.550;6.846;2022-12-20T04:49:34;2.08;;;1.90;;
37907;SDS011;23740;51.550;6.846;2022-12-20T04:51:59;2.33;;;1.73;;
37907;SDS011;23740;51.550;6.846;2022-12-20T04:54:44;1.83;;;1.67;;
37907;SDS011;23740;51.550;6.846;2022-12-20T04:57:10;2.88;;;2.10;;
37907;SDS011;23740;51.550;6.846;2022-12-20T04:59:35;1.70;;;1.60;;
37907;SDS011;23740;51.550;6.846;2022-12-20T05:02:01;2.17;;;1.52;;
37907;SDS011;23740;51.550;6.846;2022-12-20T05:04:26;3.03;;;1.70;;
37907;SDS011;23740;51.550;6.846;2022-12-20T05:06:52;2.20;;;1.70;;
37907;SDS011;23740;51.550;6.846;2022-12-20T05:09:17;2.55;;;2.00;;
37907;SDS011;23740;51.550;6.846;2022-12-20T05:11:45;1.60;;;1.23;;
37907;SDS011;23740;51.550;6.846;2022-12-20T05:14:10;2.15;;;1.85;;
37907;SDS011;23740;51.550;6.846;2022-12-20T05:16:36;2.17;;;1.67;;
37907;SDS011;23740;51.550;6.846;2022-12-20T05:19:01;1.67;;;1.58;;
37907;SDS011;23740;51.550;6.846;2022-12-20T05:21:28;2.20;;;1.90;;
37907;SDS011;23740;51.550;6.846;2022-12-20T05:24:12;2.30;;;1.88;;
37907;SDS011;23740;51.550;6.846;2022-12-20T05:26:56;3.15;;;1.90;;
37907;SDS011;23740;51.550;6.846;2022-12-20T05:29:22;3.05;;;1.90;;
37907;SDS011;23740;51.550;6.846;2022-12-20T05:31:47;2.80;;;1.58;;
37907;SDS011;23740;51.550;6.846;2022-12-20T05:34:12;1.83;;;1.73;;
37907;SDS011;23740;51.550;6.846;2022-12-20T05:36:38;2.42;;;2.03;;
37907;SDS011;23740;51.550;6.846;2022-12-20T05:39:03;2.13;;;1.70;;
37907;SDS011;23740;51.550;6.846;2022-12-20T05:41:30;3.72;;;1.80;;
37907;SDS011;23740;51.550;6.846;2022-12-20T05:43:55;2.67;;;1.67;;
37907;SDS011;23740;51.550;6.846;2022-12-20T05:46:21;2.42;;;1.52;;
37907;SDS011;23740;51.550;6.846;2022-12-20T05:48:46;2.22;;;1.60;;
37907;SDS011;23740;51.550;6.846;2022-12-20T05:51:12;1.67;;;1.58;;
37907;SDS011;23740;51.550;6.846;2022-12-20T05:53:37;2.00;;;1.70;;
37907;SDS011;23740;51.550;6.846;2022-12-20T05:56:04;1.73;;;1.58;;
37907;SDS011;23740;51.550;6.846;2022-12-20T05:58:30;1.75;;;1.58;;
37907;SDS011;23740;51.550;6.846;2022-12-20T06:00:58;2.58;;;1.50;;
37907;SDS011;23740;51.550;6.846;2022-12-20T06:03:24;2.35;;;1.85;;
37907;SDS011;23740;51.550;6.846;2022-12-20T06:05:49;2.28;;;1.80;;
37907;SDS011;23740;51.550;6.846;2022-12-20T06:08:15;1.55;;;1.45;;
37907;SDS011;23740;51.550;6.846;2022-12-20T06:10:40;2.13;;;1.63;;
37907;SDS011;23740;51.550;6.846;2022-12-20T06:13:06;2.63;;;1.63;;
37907;SDS011;23740;51.550;6.846;2022-12-20T06:15:32;2.83;;;1.55;;
37907;SDS011;23740;51.550;6.846;2022-12-20T06:17:58;1.60;;;1.50;;
37907;SDS011;23740;51.550;6.846;2022-12-20T06:20:23;2.65;;;1.50;;
37907;SDS011;23740;51.550;6.846;2022-12-20T06:22:49;2.30;;;1.80;;
37907;SDS011;23740;51.550;6.846;2022-12-20T06:25:14;1.60;;;1.45;;
37907;SDS011;23740;51.550;6.846;2022-12-20T06:27:40;1.75;;;1.60;;
37907;SDS011;23740;51.550;6.846;2022-12-20T06:30:06;1.52;;;1.23;;
37907;SDS011;23740;51.550;6.846;2022-12-20T06:32:34;1.70;;;1.50;;
37907;SDS011;23740;51.550;6.846;2022-12-20T06:35:00;2.10;;;1.65;;
37907;SDS011;23740;51.550;6.846;2022-12-20T06:37:25;3.05;;;1.48;;
37907;SDS011;23740;51.550;6.846;2022-12-20T06:39:51;2.17;;;1.70;;
37907;SDS011;23740;51.550;6.846;2022-12-20T06:42:17;2.22;;;1.60;;
37907;SDS011;23740;51.550;6.846;2022-12-20T06:44:42;4.50;;;1.88;;
37907;SDS011;23740;51.550;6.846;2022-12-20T06:47:07;1.67;;;1.58;;
37907;SDS011;23740;51.550;6.846;2022-12-20T06:49:33;2.80;;;2.00;;
37907;SDS011;23740;51.550;6.846;2022-12-20T06:51:58;2.67;;;1.83;;
37907;SDS011;23740;51.550;6.846;2022-12-20T06:54:24;2.40;;;1.63;;
37907;SDS011;23740;51.550;6.846;2022-12-20T06:56:49;2.03;;;1.60;;
37907;SDS011;23740;51.550;6.846;2022-12-20T06:59:15;1.77;;;1.60;;
37907;SDS011;23740;51.550;6.846;2022-12-20T07:01:41;1.65;;;1.55;;
37907;SDS011;23740;51.550;6.846;2022-12-20T07:04:06;2.40;;;1.60;;
37907;SDS011;23740;51.550;6.846;2022-12-20T07:06:31;1.90;;;1.70;;
37907;SDS011;23740;51.550;6.846;2022-12-20T07:08:57;2.60;;;1.80;;
37907;SDS011;23740;51.550;6.846;2022-12-20T07:11:22;2.05;;;1.50;;
37907;SDS011;23740;51.550;6.846;2022-12-20T07:13:47;1.58;;;1.42;;
37907;SDS011;23740;51.550;6.846;2022-12-20T07:16:14;3.45;;;1.98;;
37907;SDS011;23740;51.550;6.846;2022-12-20T07:18:39;3.28;;;1.63;;
37907;SDS011;23740;51.550;6.846;2022-12-20T07:21:05;1.50;;;1.35;;
37907;SDS011;23740;51.550;6.846;2022-12-20T07:23:30;2.22;;;1.60;;
37907;SDS011;23740;51.550;6.846;2022-12-20T07:25:56;1.58;;;1.38;;
37907;SDS011;23740;51.550;6.846;2022-12-20T07:28:23;3.42;;;1.90;;
37907;SDS011;23740;51.550;6.846;2022-12-20T07:30:49;3.47;;;1.80;;
37907;SDS011;23740;51.550;6.846;2022-12-20T07:33:14;3.10;;;1.85;;
37907;SDS011;23740;51.550;6.846;2022-12-20T07:35:40;1.33;;;1.20;;
37907;SDS011;23740;51.550;6.846;2022-12-20T07:38:05;2.50;;;1.50;;
37907;SDS011;23740;51.550;6.846;2022-12-20T07:40:31;1.70;;;1.60;;
37907;SDS011;23740;51.550;6.846;2022-12-20T07:42:56;3.05;;;1.65;;
37907;SDS011;23740;51.550;6.846;2022-12-20T07:45:21;2.90;;;1.90;;
37907;SDS011;23740;51.550;6.846;2022-12-20T07:47:47;3.72;;;1.70;;
37907;SDS011;23740;51.550;6.846;2022-12-20T07:50:12;2.08;;;1.38;;
37907;SDS011;23740;51.550;6.846;2022-12-20T07:52:38;3.55;;;1.80;;
37907;SDS011;23740;51.550;6.846;2022-12-20T07:55:05;1.88;;;1.48;;
37907;SDS011;23740;51.550;6.846;2022-12-20T07:57:42;2.38;;;1.58;;
37907;SDS011;23740;51.550;6.846;2022-12-20T08:00:13;6.43;;;1.50;;
37907;SDS011;23740;51.550;6.846;2022-12-20T08:02:40;3.20;;;1.88;;
37907;SDS011;23740;51.550;6.846;2022-12-20T08:05:21;1.63;;;1.48;;
37907;SDS011;23740;51.550;6.846;2022-12-20T08:07:47;2.00;;;1.65;;
37907;SDS011;23740;51.550;6.846;2022-12-20T08:10:13;2.38;;;2.17;;
37907;SDS011;23740;51.550;6.846;2022-12-20T08:12:41;3.28;;;1.60;;
37907;SDS011;23740;51.550;6.846;2022-12-20T08:15:07;4.43;;;1.58;;
37907;SDS011;23740;51.550;6.846;2022-12-20T08:17:33;1.38;;;1.27;;
37907;SDS011;23740;51.550;6.846;2022-12-20T08:19:58;1.90;;;1.40;;
37907;SDS011;23740;51.550;6.846;2022-12-20T08:22:24;2.45;;;1.70;;
37907;SDS011;23740;51.550;6.846;2022-12-20T08:24:50;2.97;;;1.70;;
37907;SDS011;23740;51.550;6.846;2022-12-20T08:27:15;6.38;;;1.52;;
37907;SDS011;23740;51.550;6.846;2022-12-20T08:29:41;3.55;;;1.45;;
37907;SDS011;23740;51.550;6.846;2022-12-20T08:32:06;2.05;;;1.85;;
37907;SDS011;23740;51.550;6.846;2022-12-20T08:34:31;2.20;;;1.40;;
37907;SDS011;23740;51.550;6.846;2022-12-20T08:36:58;2.30;;;1.48;;
37907;SDS011;23740;51.550;6.846;2022-12-20T08:39:23;2.35;;;1.63;;
37907;SDS011;23740;51.550;6.846;2022-12-20T08:41:49;2.55;;;1.65;;
37907;SDS011;23740;51.550;6.846;2022-12-20T08:44:14;4.93;;;2.05;;
37907;SDS011;23740;51.550;6.846;2022-12-20T08:46:39;1.73;;;1.38;;
37907;SDS011;23740;51.550;6.846;2022-12-20T08:49:05;2.28;;;1.67;;
37907;SDS011;23740;51.550;6.846;2022-12-20T08:51:30;1.65;;;1.10;;
37907;SDS011;23740;51.550;6.846;2022-12-20T08:53:56;6.28;;;1.73;;
37907;SDS011;23740;51.550;6.846;2022-12-20T08:56:21;5.30;;;1.73;;
37907;SDS011;23740;51.550;6.846;2022-12-20T08:58:47;6.22;;;1.73;;
37907;SDS011;23740;51.550;6.846;2022-12-20T09:01:13;5.22;;;1.60;;
37907;SDS011;23740;51.550;6.846;2022-12-20T09:03:40;3.50;;;1.52;;
37907;SDS011;23740;51.550;6.846;2022-12-20T09:06:06;4.55;;;1.50;;
37907;SDS011;23740;51.550;6.846;2022-12-20T09:08:34;2.72;;;1.55;;
37907;SDS011;23740;51.550;6.846;2022-12-20T09:11:07;2.60;;;1.70;;
37907;SDS011;23740;51.550;6.846;2022-12-20T09:18:33;2.20;;;1.65;;
37907;SDS011;23740;51.550;6.846;2022-12-20T09:20:59;2.90;;;1.98;;
37907;SDS011;23740;51.550;6.846;2022-12-20T09:23:28;1.80;;;1.52;;
37907;SDS011;23740;51.550;6.846;2022-12-20T09:25:54;2.88;;;1.77;;
37907;SDS011;23740;51.550;6.846;2022-12-20T09:28:20;2.63;;;1.65;;
37907;SDS011;23740;51.550;6.846;2022-12-20T09:30:46;2.58;;;1.65;;
37907;SDS011;23740;51.550;6.846;2022-12-20T09:33:11;2.60;;;1.27;;
37907;SDS011;23740;51.550;6.846;2022-12-20T09:35:42;3.60;;;1.80;;
37907;SDS011;23740;51.550;6.846;2022-12-20T09:38:08;3.20;;;1.42;;
37907;SDS011;23740;51.550;6.846;2022-12-20T09:40:34;1.92;;;1.60;;
37907;SDS011;23740;51.550;6.846;2022-12-20T09:43:02;3.88;;;2.42;;
37907;SDS011;23740;51.550;6.846;2022-12-20T09:45:28;2.58;;;1.73;;
37907;SDS011;23740;51.550;6.846;2022-12-20T09:47:59;4.07;;;1.80;;
37907;SDS011;23740;51.550;6.846;2022-12-20T09:50:36;2.97;;;1.52;;
37907;SDS011;23740;51.550;6.846;2022-12-20T09:53:13;5.30;;;1.70;;
37907;SDS011;23740;51.550;6.846;2022-12-20T09:55:59;4.72;;;2.03;;
37907;SDS011;23740;51.550;6.846;2022-12-20T10:01:31;2.63;;;1.50;;
37907;SDS011;23740;51.550;6.846;2022-12-20T10:04:00;2.80;;;1.80;;
37907;SDS011;23740;51.550;6.846;2022-12-20T10:12:38;1.50;;;1.33;;
37907;SDS011;23740;51.550;6.846;2022-12-20T10:15:18;4.40;;;1.70;;
37907;SDS011;23740;51.550;6.846;2022-12-20T10:26:33;2.20;;;1.45;;
37907;SDS011;23740;51.550;6.846;2022-12-20T10:28:59;2.08;;;1.67;;
37907;SDS011;23740;51.550;6.846;2022-12-20T10:31:25;2.88;;;1.65;;
37907;SDS011;23740;51.550;6.846;2022-12-20T10:33:51;2.00;;;1.38;;
37907;SDS011;23740;51.550;6.846;2022-12-20T10:39:00;2.42;;;1.30;;
37907;SDS011;23740;51.550;6.846;2022-12-20T10:46:48;1.58;;;1.33;;
37907;SDS011;23740;51.550;6.846;2022-12-20T10:51:54;1.95;;;1.55;;
37907;SDS011;23740;51.550;6.846;2022-12-20T10:54:28;3.37;;;1.30;;
37907;SDS011;23740;51.550;6.846;2022-12-20T10:57:23;1.52;;;1.38;;
37907;SDS011;23740;51.550;6.846;2022-12-20T10:59:51;2.58;;;1.30;;
37907;SDS011;23740;51.550;6.846;2022-12-20T11:02:30;2.78;;;1.50;;
37907;SDS011;23740;51.550;6.846;2022-12-20T11:07:35;3.13;;;1.40;;
37907;SDS011;23740;51.550;6.846;2022-12-20T11:10:16;2.17;;;1.13;;
37907;SDS011;23740;51.550;6.846;2022-12-20T11:12:53;4.05;;;1.50;;
37907;SDS011;23740;51.550;6.846;2022-12-20T11:15:21;2.13;;;1.58;;
37907;SDS011;23740;51.550;6.846;2022-12-20T11:17:50;1.95;;;1.15;;
37907;SDS011;23740;51.550;6.846;2022-12-20T11:20:21;2.05;;;1.20;;
37907;SDS011;23740;51.550;6.846;2022-12-20T11:31:43;1.50;;;1.40;;
37907;SDS011;23740;51.550;6.846;2022-12-20T11:34:58;1.40;;;1.30;;
37907;SDS011;23740;51.550;6.846;2022-12-20T11:37:25;3.53;;;1.40;;
37907;SDS011;23740;51.550;6.846;2022-12-20T11:42:26;4.28;;;1.50;;
37907;SDS011;23740;51.550;6.846;2022-12-20T11:53:29;3.03;;;1.35;;
37907;SDS011;23740;51.550;6.846;2022-12-20T11:56:02;1.20;;;1.10;;
37907;SDS011;23740;51.550;6.846;2022-12-20T11:58:49;3.83;;;1.50;;
37907;SDS011;23740;51.550;6.846;2022-12-20T12:01:17;2.03;;;1.40;;
37907;SDS011;23740;51.550;6.846;2022-12-20T12:04:32;2.03;;;1.20;;
37907;SDS011;23740;51.550;6.846;2022-12-20T12:12:05;3.63;;;1.65;;
37907;SDS011;23740;51.550;6.846;2022-12-20T12:14:56;3.95;;;1.25;;
37907;SDS011;23740;51.550;6.846;2022-12-20T12:19:50;3.78;;;1.60;;
37907;SDS011;23740;51.550;6.846;2022-12-20T12:22:27;2.58;;;1.50;;
37907;SDS011;23740;51.550;6.846;2022-12-20T12:24:57;1.60;;;1.40;;
37907;SDS011;23740;51.550;6.846;2022-12-20T12:27:24;2.35;;;1.58;;
37907;SDS011;23740;51.550;6.846;2022-12-20T12:29:51;2.53;;;1.38;;
37907;SDS011;23740;51.550;6.846;2022-12-20T12:46:30;7.50;;;1.67;;
37907;SDS011;23740;51.550;6.846;2022-12-20T12:48:58;3.50;;;1.60;;
37907;SDS011;23740;51.550;6.846;2022-12-20T12:51:27;2.55;;;1.45;;
37907;SDS011;23740;51.550;6.846;2022-12-20T12:54:29;5.35;;;2.20;;
37907;SDS011;23740;51.550;6.846;2022-12-20T12:56:48;3.25;;;1.73;;
37907;SDS011;23740;51.550;6.846;2022-12-20T13:04:28;1.73;;;1.30;;
37907;SDS011;23740;51.550;6.846;2022-12-20T13:11:49;2.83;;;1.20;;
37907;SDS011;23740;51.550;6.846;2022-12-20T13:16:42;2.88;;;1.63;;
37907;SDS011;23740;51.550;6.846;2022-12-20T13:19:28;2.58;;;1.45;;
37907;SDS011;23740;51.550;6.846;2022-12-20T13:21:56;3.63;;;1.75;;
37907;SDS011;23740;51.550;6.846;2022-12-20T13:24:36;3.55;;;1.85;;
37907;SDS011;23740;51.550;6.846;2022-12-20T13:37:50;2.25;;;1.33;;
37907;SDS011;23740;51.550;6.846;2022-12-20T13:51:11;2.13;;;1.70;;
37907;SDS011;23740;51.550;6.846;2022-12-20T13:53:40;2.85;;;1.63;;
37907;SDS011;23740;51.550;6.846;2022-12-20T13:56:27;2.05;;;1.40;;
37907;SDS011;23740;51.550;6.846;2022-12-20T13:58:58;2.13;;;1.48;;
37907;SDS011;23740;51.550;6.846;2022-12-20T14:01:28;2.80;;;1.60;;
37907;SDS011;23740;51.550;6.846;2022-12-20T14:03:55;6.50;;;1.50;;
37907;SDS011;23740;51.550;6.846;2022-12-20T14:06:21;2.90;;;1.70;;
37907;SDS011;23740;51.550;6.846;2022-12-20T14:08:49;8.75;;;1.75;;
37907;SDS011;23740;51.550;6.846;2022-12-20T14:11:20;2.33;;;1.65;;
37907;SDS011;23740;51.550;6.846;2022-12-20T14:13:54;3.53;;;1.80;;
37907;SDS011;23740;51.550;6.846;2022-12-20T14:16:21;2.40;;;1.60;;
37907;SDS011;23740;51.550;6.846;2022-12-20T14:18:48;3.03;;;1.60;;
37907;SDS011;23740;51.550;6.846;2022-12-20T14:21:14;4.28;;;2.13;;
37907;SDS011;23740;51.550;6.846;2022-12-20T14:23:40;3.30;;;1.40;;
37907;SDS011;23740;51.550;6.846;2022-12-20T14:28:39;1.60;;;1.27;;
37907;SDS011;23740;51.550;6.846;2022-12-20T14:31:53;2.80;;;1.50;;
37907;SDS011;23740;51.550;6.846;2022-12-20T14:41:46;3.90;;;1.58;;
37907;SDS011;23740;51.550;6.846;2022-12-20T14:44:15;2.42;;;1.75;;
37907;SDS011;23740;51.550;6.846;2022-12-20T14:46:51;2.58;;;1.60;;
37907;SDS011;23740;51.550;6.846;2022-12-20T14:51:53;2.33;;;1.60;;
37907;SDS011;23740;51.550;6.846;2022-12-20T14:57:21;2.95;;;1.50;;
37907;SDS011;23740;51.550;6.846;2022-12-20T15:13:25;6.03;;;2.03;;
37907;SDS011;23740;51.550;6.846;2022-12-20T15:15:59;2.53;;;1.73;;
37907;SDS011;23740;51.550;6.846;2022-12-20T15:21:27;2.35;;;1.83;;
37907;SDS011;23740;51.550;6.846;2022-12-20T15:23:56;2.22;;;1.70;;
37907;SDS011;23740;51.550;6.846;2022-12-20T15:26:25;2.40;;;1.50;;
37907;SDS011;23740;51.550;6.846;2022-12-20T15:28:51;2.80;;;1.70;;
37907;SDS011;23740;51.550;6.846;2022-12-20T15:31:18;3.00;;;1.77;;
37907;SDS011;23740;51.550;6.846;2022-12-20T15:33:44;2.78;;;1.45;;
37907;SDS011;23740;51.550;6.846;2022-12-20T15:36:15;3.13;;;1.40;;
37907;SDS011;23740;51.550;6.846;2022-12-20T15:38:42;1.95;;;1.42;;
37907;SDS011;23740;51.550;6.846;2022-12-20T15:41:08;1.70;;;1.40;;
37907;SDS011;23740;51.550;6.846;2022-12-20T15:43:38;2.75;;;1.80;;
37907;SDS011;23740;51.550;6.846;2022-12-20T15:46:03;3.00;;;2.00;;
37907;SDS011;23740;51.550;6.846;2022-12-20T15:48:28;2.05;;;1.50;;
37907;SDS011;23740;51.550;6.846;2022-12-20T15:50:55;2.22;;;1.48;;
37907;SDS011;23740;51.550;6.846;2022-12-20T15:53:26;4.13;;;1.77;;
37907;SDS011;23740;51.550;6.846;2022-12-20T15:55:55;2.03;;;1.30;;
37907;SDS011;23740;51.550;6.846;2022-12-20T15:58:21;2.17;;;1.60;;
37907;SDS011;23740;51.550;6.846;2022-12-20T16:00:47;2.67;;;1.75;;
37907;SDS011;23740;51.550;6.846;2022-12-20T16:03:14;2.00;;;1.33;;
37907;SDS011;23740;51.550;6.846;2022-12-20T16:05:42;1.88;;;1.65;;
37907;SDS011;23740;51.550;6.846;2022-12-20T16:08:07;2.03;;;1.38;;
37907;SDS011;23740;51.550;6.846;2022-12-20T16:10:33;2.22;;;1.70;;
37907;SDS011;23740;51.550;6.846;2022-12-20T16:12:58;1.88;;;1.50;;
37907;SDS011;23740;51.550;6.846;2022-12-20T16:15:24;2.63;;;1.40;;
37907;SDS011;23740;51.550;6.846;2022-12-20T16:17:49;2.22;;;1.63;;
37907;SDS011;23740;51.550;6.846;2022-12-20T16:20:15;4.07;;;1.70;;
37907;SDS011;23740;51.550;6.846;2022-12-20T16:22:40;2.55;;;1.73;;
37907;SDS011;23740;51.550;6.846;2022-12-20T16:25:08;2.72;;;1.77;;
37907;SDS011;23740;51.550;6.846;2022-12-20T16:30:10;3.27;;;1.47;;
37907;SDS011;23740;51.550;6.846;2022-12-20T16:32:36;3.55;;;1.52;;
37907;SDS011;23740;51.550;6.846;2022-12-20T16:35:01;1.60;;;1.40;;
37907;SDS011;23740;51.550;6.846;2022-12-20T16:37:26;1.95;;;1.42;;
37907;SDS011;23740;51.550;6.846;2022-12-20T16:39:52;1.92;;;1.70;;
37907;SDS011;23740;51.550;6.846;2022-12-20T16:42:18;2.22;;;1.60;;
37907;SDS011;23740;51.550;6.846;2022-12-20T16:44:49;3.03;;;1.75;;
37907;SDS011;23740;51.550;6.846;2022-12-20T16:47:15;1.33;;;1.15;;
37907;SDS011;23740;51.550;6.846;2022-12-20T16:49:41;4.35;;;1.80;;
37907;SDS011;23740;51.550;6.846;2022-12-20T16:52:08;2.30;;;1.38;;
37907;SDS011;23740;51.550;6.846;2022-12-20T16:54:39;3.30;;;2.05;;
37907;SDS011;23740;51.550;6.846;2022-12-20T16:57:04;2.70;;;1.90;;
37907;SDS011;23740;51.550;6.846;2022-12-20T16:59:30;3.80;;;2.42;;
37907;SDS011;23740;51.550;6.846;2022-12-20T17:01:55;3.53;;;2.22;;
37907;SDS011;23740;51.550;6.846;2022-12-20T17:04:21;4.80;;;1.88;;
37907;SDS011;23740;51.550;6.846;2022-12-20T17:06:47;4.70;;;2.70;;
37907;SDS011;23740;51.550;6.846;2022-12-20T17:09:12;4.55;;;3.35;;
37907;SDS011;23740;51.550;6.846;2022-12-20T17:11:40;5.18;;;2.78;;
37907;SDS011;23740;51.550;6.846;2022-12-20T17:14:05;4.32;;;2.45;;
37907;SDS011;23740;51.550;6.846;2022-12-20T17:16:31;4.85;;;2.60;;
37907;SDS011;23740;51.550;6.846;2022-12-20T17:18:56;3.17;;;2.17;;
37907;SDS011;23740;51.550;6.846;2022-12-20T17:21:27;3.03;;;2.20;;
37907;SDS011;23740;51.550;6.846;2022-12-20T17:24:05;3.90;;;2.63;;
37907;SDS011;23740;51.550;6.846;2022-12-20T17:26:31;3.63;;;2.42;;
37907;SDS011;23740;51.550;6.846;2022-12-20T17:28:57;3.28;;;2.25;;
37907;SDS011;23740;51.550;6.846;2022-12-20T17:36:49;3.53;;;2.38;;
37907;SDS011;23740;51.550;6.846;2022-12-20T17:39:15;4.35;;;2.42;;
37907;SDS011;23740;51.550;6.846;2022-12-20T17:41:41;5.03;;;2.60;;
37907;SDS011;23740;51.550;6.846;2022-12-20T17:44:13;8.40;;;4.57;;
37907;SDS011;23740;51.550;6.846;2022-12-20T17:46:41;5.95;;;3.38;;